Lilac, Texas
Current Conditions -  °F | °C
As of 10:51 PM on Friday 21 Nov 2014 (Local Time) from KGRK Reporting Station
Thunderstorm Thunderstorm  
Wind Chill: 66°   Ceiling: 1100
Heat Index: 66°   Visibility: 2mi
Dew Point: 64°   Wind: 30mph
Humidity: 94%   Direction: 170°S
Pressure: 30.04"   Gusts: 41mph
Location:  30.5951°N, 97.1399°W
Report Text: KGRK 220451Z AUTO 17026G36KT 2SM TSRA BR SCT003 BKN011 OVC028 19/18 A3004 RMK AO2 VIS 2V10 LTG DSNT NE AND SE-SW RAB0359E0410B0442 TSB0436 BKN V OVC CIG 007 RWY33
Loading
Personal Weather Stations






























Interactive Weather Map New forecast layout! Learn more

10-Day Weather Forecast

Advertisements
Track Severe Weather on mobile